Time;durP1;ratioP1;P1;durP2;ratioP2;P2;SDS_P1;SDS_P2;PMS_P1;PMS_P2;Temp;Humidity;BMP_temperature;BMP_pressure;BME280_temperature;BME280_humidity;BME280_pressure;Samples;Min_cycle;Max_cycle;Signal;HPM_P1;HPM_P2
2023/12/03 00:00:37;;;;;;;36.28;15.18;;;2.10;99.90;;;;;;4958944;28;20027;-91
2023/12/03 00:03:03;;;;;;;;;;;2.00;99.90;;;;;;4959431;28;20058;-92
2023/12/03 00:05:28;;;;;;;33.47;13.95;;;2.10;99.90;;;;;;4958771;28;19976;-92
2023/12/03 00:07:54;;;;;;;34.10;14.48;;;2.20;99.90;;;;;;4961354;28;20031;-90
2023/12/03 00:10:20;;;;;;;33.15;14.27;;;2.20;99.90;;;;;;4960885;28;20038;-90
2023/12/03 00:12:46;;;;;;;32.78;14.38;;;2.30;99.90;;;;;;4960734;28;20035;-92
2023/12/03 00:15:11;;;;;;;31.98;14.18;;;2.20;99.90;;;;;;4961672;28;20050;-93
2023/12/03 00:17:37;;;;;;;31.48;13.52;;;2.30;99.90;;;;;;4959780;28;20038;-91
2023/12/03 00:20:03;;;;;;;33.47;14.35;;;2.30;99.90;;;;;;4948081;28;20786;-90
2023/12/03 00:22:29;;;;;;;34.85;14.30;;;2.30;99.90;;;;;;4960284;28;20062;-90
2023/12/03 00:24:55;;;;;;;32.15;13.77;;;2.20;99.90;;;;;;4944899;28;20066;-89
2023/12/03 00:27:22;;;;;;;31.10;12.93;;;2.10;99.90;;;;;;4975063;28;20046;-92
2023/12/03 00:29:49;;;;;;;31.77;13.70;;;2.30;99.90;;;;;;4958185;28;20034;-92
2023/12/03 00:32:14;;;;;;;34.10;12.95;;;2.20;99.90;;;;;;4956919;28;20041;-91
2023/12/03 00:34:40;;;;;;;32.25;13.13;;;2.30;99.90;;;;;;4944379;28;20633;-90
2023/12/03 00:37:08;;;;;;;29.70;13.25;;;2.30;99.90;;;;;;4961529;28;20082;-90
2023/12/03 00:39:33;;;;;;;27.40;12.77;;;2.40;99.90;;;;;;4979642;28;20031;-92
2023/12/03 00:42:01;;;;;;;31.80;13.40;;;2.60;99.90;;;;;;4962461;28;20053;-90
2023/12/03 00:44:29;;;;;;;26.73;12.27;;;2.50;99.90;;;;;;4976221;28;20031;-91
2023/12/03 00:46:57;;;;;;;30.70;12.93;;;2.40;99.90;;;;;;4946613;28;20114;-92
2023/12/03 00:49:23;;;;;;;30.65;12.63;;;2.50;99.90;;;;;;4959827;28;20035;-91
2023/12/03 00:51:48;;;;;;;30.45;12.68;;;2.50;99.90;;;;;;4961511;28;20037;-92
2023/12/03 00:54:14;;;;;;;27.98;12.50;;;2.50;99.90;;;;;;4959566;28;20495;-92
2023/12/03 00:56:39;;;;;;;25.92;12.20;;;2.50;99.90;;;;;;4944282;28;20066;-89
2023/12/03 00:59:07;;;;;;;27.05;10.85;;;2.60;99.90;;;;;;4962306;28;20106;-91
2023/12/03 01:01:33;;;;;;;;;;;2.70;99.90;;;;;;4963054;28;20039;-91
2023/12/03 01:03:58;;;;;;;31.17;12.55;;;2.60;99.90;;;;;;4962099;28;19913;-90
2023/12/03 01:06:24;;;;;;;26.00;11.95;;;2.60;99.90;;;;;;4963016;28;20505;-91
2023/12/03 01:08:50;;;;;;;28.10;12.55;;;2.50;99.90;;;;;;4943551;28;20034;-91
2023/12/03 01:11:16;;;;;;;24.80;10.27;;;2.50;99.90;;;;;;4960688;28;20043;-90
2023/12/03 01:13:41;;;;;;;31.75;12.55;;;2.40;99.90;;;;;;4964300;28;20403;-91
2023/12/03 01:16:17;;;;;;;28.45;11.30;;;2.40;99.90;;;;;;4947824;28;20042;-92
2023/12/03 01:18:43;;;;;;;27.48;11.13;;;2.40;99.90;;;;;;4962898;28;20030;-89
2023/12/03 01:21:09;;;;;;;28.00;12.45;;;2.40;99.90;;;;;;4962633;28;20119;-93
2023/12/03 01:23:36;;;;;;;31.38;13.40;;;2.30;99.90;;;;;;4961301;28;20681;-92
2023/12/03 01:26:02;;;;;;;29.92;12.55;;;2.30;99.90;;;;;;4961286;28;20081;-91
2023/12/03 01:28:28;;;;;;;26.05;11.80;;;2.30;99.90;;;;;;4964881;28;20434;-91
2023/12/03 01:30:55;;;;;;;27.98;11.20;;;2.40;99.90;;;;;;4960279;28;20690;-92
2023/12/03 01:33:21;;;;;;;28.92;12.75;;;2.50;99.90;;;;;;4962735;28;20050;-90
2023/12/03 01:35:47;;;;;;;32.10;12.13;;;2.40;99.90;;;;;;4961218;28;20471;-92
2023/12/03 01:38:15;;;;;;;27.05;10.73;;;2.30;99.90;;;;;;4960422;28;20042;-90
2023/12/03 01:40:51;;;;;;;29.73;12.35;;;2.40;99.90;;;;;;4978558;28;20082;-91
2023/12/03 01:43:16;;;;;;;25.48;11.50;;;2.40;99.90;;;;;;4958899;28;20041;-91
2023/12/03 01:45:42;;;;;;;30.73;12.75;;;2.50;99.90;;;;;;4960445;28;20035;-89
2023/12/03 01:48:10;;;;;;;33.47;13.02;;;2.40;99.90;;;;;;4959294;28;20034;-92
2023/12/03 01:50:36;;;;;;;32.15;13.30;;;2.50;99.90;;;;;;4961682;28;20465;-91
2023/12/03 01:53:02;;;;;;;34.22;13.75;;;2.50;99.90;;;;;;4960420;28;20035;-91
2023/12/03 01:55:28;;;;;;;31.65;13.15;;;2.50;99.90;;;;;;4958871;28;20522;-91
2023/12/03 01:57:54;;;;;;;39.55;15.13;;;2.50;99.90;;;;;;4960162;28;20439;-91
2023/12/03 02:00:20;;;;;;;39.42;15.27;;;2.30;99.90;;;;;;4976693;28;20035;-92
2023/12/03 02:02:46;;;;;;;32.60;13.98;;;2.40;99.90;;;;;;4977618;28;20027;-91
2023/12/03 02:05:14;;;;;;;34.30;14.15;;;2.50;99.90;;;;;;4959015;28;20525;-91
2023/12/03 02:07:42;;;;;;;36.08;14.02;;;2.50;99.90;;;;;;4958950;28;20034;-89
2023/12/03 02:10:08;;;;;;;33.63;13.43;;;2.50;99.90;;;;;;4960369;28;20057;-91
2023/12/03 02:12:34;;;;;;;34.92;14.35;;;2.60;99.90;;;;;;4960354;28;20034;-91
2023/12/03 02:15:02;;;;;;;40.38;15.00;;;2.60;99.90;;;;;;4941306;28;20054;-91
2023/12/03 02:17:30;;;;;;;39.22;15.45;;;2.60;99.90;;;;;;4947175;28;20041;-92
2023/12/03 02:19:56;;;;;;;35.55;14.80;;;2.60;99.90;;;;;;4940175;28;20664;-91
2023/12/03 02:22:22;;;;;;;37.22;16.27;;;2.60;99.90;;;;;;4945473;28;20046;-90
2023/12/03 02:24:50;;;;;;;37.63;15.20;;;2.70;99.90;;;;;;4957751;28;20043;-89
2023/12/03 02:27:17;;;;;;;34.45;14.90;;;2.70;99.90;;;;;;4959829;28;20031;-92
2023/12/03 02:29:47;;;;;;;37.67;15.43;;;2.70;99.90;;;;;;4960536;28;20054;-91
2023/12/03 02:32:15;;;;;;;39.28;15.98;;;2.60;99.90;;;;;;4976277;28;20031;-91
2023/12/03 02:34:40;;;;;;;45.42;16.27;;;2.60;99.90;;;;;;4944248;28;20074;-91
2023/12/03 02:37:06;;;;;;;42.83;17.25;;;2.60;99.90;;;;;;4962194;28;20023;-92
2023/12/03 02:39:32;;;;;;;41.33;18.15;;;2.50;99.90;;;;;;4961246;28;20599;-93
2023/12/03 02:41:57;;;;;;;41.17;16.73;;;2.40;99.90;;;;;;4961076;28;20037;-91
2023/12/03 02:44:23;;;;;;;45.75;18.27;;;2.50;99.90;;;;;;4974589;28;20026;-89
2023/12/03 02:46:48;;;;;;;48.08;19.02;;;2.60;99.90;;;;;;4958384;28;20107;-92
2023/12/03 02:49:16;;;;;;;46.97;18.63;;;2.60;99.90;;;;;;4961252;28;20537;-92
2023/12/03 02:51:42;;;;;;;52.53;19.75;;;2.60;99.90;;;;;;4960651;28;20035;-91
2023/12/03 02:54:07;;;;;;;53.78;19.60;;;2.50;99.90;;;;;;4945787;28;20034;-91
2023/12/03 02:56:35;;;;;;;53.10;20.42;;;2.50;99.90;;;;;;4958334;28;20023;-90
2023/12/03 02:59:03;;;;;;;51.20;19.65;;;2.60;99.90;;;;;;4961226;28;20102;-90
2023/12/03 03:01:28;;;;;;;50.45;20.65;;;2.60;99.90;;;;;;4961667;28;20426;-91
2023/12/03 03:03:56;;;;;;;49.90;19.98;;;2.70;99.90;;;;;;4961662;28;20077;-91
2023/12/03 03:06:24;;;;;;;50.63;20.08;;;2.50;99.90;;;;;;4959548;28;20031;-91
2023/12/03 03:08:51;;;;;;;51.50;22.13;;;2.60;99.90;;;;;;4937934;28;20138;-92
2023/12/03 03:11:17;;;;;;;53.55;22.10;;;2.50;99.90;;;;;;4956525;28;20066;-92
2023/12/03 03:13:45;;;;;;;61.58;22.38;;;2.60;99.90;;;;;;4958273;28;20047;-91
2023/12/03 03:16:13;;;;;;;56.53;22.38;;;2.60;99.90;;;;;;4959567;28;20778;-92
2023/12/03 03:18:40;;;;;;;59.75;23.85;;;2.40;99.90;;;;;;4965358;28;20062;-92
2023/12/03 03:21:10;;;;;;;60.65;23.27;;;2.30;99.90;;;;;;4944431;28;20073;-92
2023/12/03 03:23:37;;;;;;;59.22;22.75;;;2.40;99.90;;;;;;4939081;28;20208;-92
2023/12/03 03:26:03;;;;;;;57.55;23.00;;;2.50;99.90;;;;;;4960839;28;20038;-92
2023/12/03 03:28:29;;;;;;;57.90;22.88;;;2.30;99.90;;;;;;4958379;28;20636;-91
2023/12/03 03:30:54;;;;;;;63.33;23.92;;;2.40;99.90;;;;;;4928915;28;20089;-93
2023/12/03 03:33:20;;;;;;;62.10;23.73;;;2.50;99.90;;;;;;4943984;28;20498;-92
2023/12/03 03:35:49;;;;;;;58.88;23.27;;;2.40;99.90;;;;;;4946040;28;20085;-91
2023/12/03 03:38:17;;;;;;;58.28;22.98;;;2.40;99.90;;;;;;4960270;28;20042;-90
2023/12/03 03:40:43;;;;;;;58.83;22.42;;;2.60;99.90;;;;;;4957756;28;20027;-92
2023/12/03 03:43:08;;;;;;;58.85;22.95;;;2.50;99.90;;;;;;4959241;28;20029;-92
2023/12/03 03:45:34;;;;;;;57.85;22.58;;;2.50;99.90;;;;;;4957717;28;20026;-92
2023/12/03 03:48:01;;;;;;;55.90;23.40;;;2.50;99.90;;;;;;4959166;28;20544;-91
2023/12/03 03:50:28;;;;;;;59.00;23.90;;;2.40;99.90;;;;;;4961048;28;20027;-92
2023/12/03 03:52:54;;;;;;;62.42;24.05;;;2.40;99.90;;;;;;4961109;28;20503;-93
2023/12/03 03:55:20;;;;;;;57.38;23.17;;;2.50;99.90;;;;;;4942407;28;20047;-92
2023/12/03 03:57:48;;;;;;;61.08;23.23;;;2.50;99.90;;;;;;4960820;28;20114;-92
2023/12/03 04:00:15;;;;;;;63.10;23.70;;;2.50;99.90;;;;;;4958527;28;20194;-91
2023/12/03 04:02:40;;;;;;;57.60;22.63;;;2.30;99.90;;;;;;4943016;28;20615;-91
2023/12/03 04:05:07;;;;;;;58.95;23.85;;;2.40;99.90;;;;;;4956423;28;20038;-91
2023/12/03 04:07:33;;;;;;;56.70;22.07;;;2.40;99.90;;;;;;4958510;28;20030;-92
2023/12/03 04:10:02;;;;;;;57.08;22.80;;;2.40;99.90;;;;;;4957844;28;20159;-92
2023/12/03 04:12:28;;;;;;;52.80;22.65;;;2.40;99.90;;;;;;4961840;28;20047;-92
2023/12/03 04:14:55;;;;;;;60.65;23.52;;;2.40;99.90;;;;;;4961258;28;20042;-92
2023/12/03 04:17:27;;;;;;;61.15;24.50;;;2.50;99.90;;;;;;4963931;28;20043;-92
2023/12/03 04:19:55;;;;;;;64.72;23.67;;;2.50;99.90;;;;;;4963506;28;20043;-92
2023/12/03 04:22:20;;;;;;;59.97;24.90;;;2.60;99.90;;;;;;4961996;28;20512;-92
2023/12/03 04:24:46;;;;;;;56.03;22.48;;;2.70;99.90;;;;;;4950229;28;20054;-92
2023/12/03 04:27:14;;;;;;;58.85;23.30;;;2.70;99.90;;;;;;4965376;28;20066;-93
2023/12/03 04:29:42;;;;;;;58.22;24.00;;;2.70;99.90;;;;;;4963259;28;20128;-92
2023/12/03 04:32:09;;;;;;;59.25;23.35;;;2.70;99.90;;;;;;4962647;28;20041;-92
2023/12/03 04:34:39;;;;;;;59.42;23.70;;;2.70;99.90;;;;;;4980486;28;20023;-92
2023/12/03 04:37:05;;;;;;;59.80;22.98;;;2.70;99.90;;;;;;4948331;28;20031;-93
2023/12/03 04:39:31;;;;;;;57.47;22.52;;;2.80;99.90;;;;;;4962092;28;20038;-93
2023/12/03 04:41:56;;;;;;;56.15;22.85;;;2.80;99.90;;;;;;4963537;28;20063;-92
2023/12/03 04:44:22;;;;;;;56.60;23.45;;;2.70;99.90;;;;;;4964405;28;20093;-93
2023/12/03 04:46:48;;;;;;;59.88;24.13;;;2.70;99.90;;;;;;4959570;28;21818;-93
2023/12/03 04:49:18;;;;;;;56.45;22.23;;;2.60;99.90;;;;;;4963655;28;20035;-93
2023/12/03 04:51:43;;;;;;;50.75;22.48;;;2.50;99.90;;;;;;4978250;28;20058;-91
2023/12/03 04:54:15;;;;;;;54.58;23.02;;;2.60;99.90;;;;;;4961552;28;20164;-92
2023/12/03 04:56:41;;;;;;;54.13;23.35;;;2.60;99.90;;;;;;4979375;28;20658;-92
2023/12/03 04:59:08;;;;;;;54.08;23.00;;;2.50;99.90;;;;;;4977836;28;20035;-93
2023/12/03 05:01:34;;;;;;;64.07;25.58;;;2.60;99.90;;;;;;4963616;28;20062;-93
2023/12/03 05:04:00;;;;;;;59.28;24.48;;;2.70;99.90;;;;;;4961473;28;20064;-93
2023/12/03 05:06:26;;;;;;;53.47;22.83;;;2.70;99.90;;;;;;4965142;28;20115;-93
2023/12/03 05:08:52;;;;;;;56.90;23.80;;;2.70;99.90;;;;;;4963597;28;20027;-93
2023/12/03 05:11:20;;;;;;;53.83;22.77;;;2.70;99.90;;;;;;4963306;28;20141;-91
2023/12/03 05:13:45;;;;;;;52.78;21.80;;;2.80;99.90;;;;;;4976871;28;21801;-92
2023/12/03 05:16:11;;;;;;;60.83;22.75;;;2.80;99.90;;;;;;4962591;28;20047;-93
2023/12/03 05:18:41;;;;;;;59.83;24.70;;;2.70;99.90;;;;;;4962891;28;20038;-92
2023/12/03 05:21:07;;;;;;;60.10;22.58;;;2.70;99.90;;;;;;4962557;28;20210;-92
2023/12/03 05:23:36;;;;;;;57.55;23.27;;;2.80;99.90;;;;;;4959511;28;20030;-91
2023/12/03 05:26:03;;;;;;;61.17;23.92;;;2.90;99.90;;;;;;4979101;28;20054;-93
2023/12/03 05:28:30;;;;;;;60.78;23.50;;;3.00;99.90;;;;;;4963620;28;20098;-92
2023/12/03 05:30:56;;;;;;;59.53;23.85;;;2.90;99.90;;;;;;4965298;28;20035;-91
2023/12/03 05:33:22;;;;;;;57.75;23.05;;;2.80;99.90;;;;;;4964167;28;20019;-93
2023/12/03 05:35:50;;;;;;;57.05;23.20;;;2.70;99.90;;;;;;4966493;28;20038;-93
2023/12/03 05:38:18;;;;;;;64.13;25.50;;;2.60;99.90;;;;;;4963554;28;20104;-94
2023/12/03 05:40:44;;;;;;;61.42;25.30;;;2.50;99.90;;;;;;4962881;28;20038;-90
2023/12/03 05:43:13;;;;;;;68.72;25.75;;;2.50;99.90;;;;;;4963982;28;20038;-93
2023/12/03 05:45:41;;;;;;;63.88;24.90;;;2.40;99.90;;;;;;4948335;28;20120;-93
2023/12/03 05:48:07;;;;;;;64.88;25.67;;;2.50;99.90;;;;;;4963250;28;20106;-94
2023/12/03 05:50:33;;;;;;;70.05;26.70;;;2.50;99.90;;;;;;4981660;28;20126;-92
2023/12/03 05:52:59;;;;;;;75.63;27.70;;;2.50;99.90;;;;;;4967397;28;20085;-94
2023/12/03 05:55:31;;;;;;;71.85;28.08;;;2.50;99.90;;;;;;4968101;28;20117;-93
2023/12/03 05:57:58;;;;;;;70.68;26.13;;;2.50;99.90;;;;;;4965172;28;20054;-93
2023/12/03 06:00:24;;;;;;;68.43;27.77;;;2.50;99.90;;;;;;4965782;28;20094;-93
2023/12/03 06:02:52;;;;;;;75.45;28.73;;;2.50;99.90;;;;;;4964765;28;20459;-94
2023/12/03 06:05:20;;;;;;;75.57;27.83;;;2.50;99.90;;;;;;4965764;28;20038;-94
2023/12/03 06:07:45;;;;;;;;;;;2.60;99.90;;;;;;4975046;28;20067;-95
2023/12/03 06:10:13;;;;;;;71.00;25.65;;;2.40;99.90;;;;;;4987342;28;20004;-94
2023/12/03 06:12:41;;;;;;;73.78;27.33;;;2.30;99.90;;;;;;4971316;28;20093;-94
2023/12/03 06:15:07;;;;;;;;;;;2.40;99.90;;;;;;4973383;28;20049;-94
2023/12/03 06:17:35;;;;;;;71.07;26.08;;;2.30;99.90;;;;;;4972509;28;19953;-94
2023/12/03 06:20:03;;;;;;;;;;;2.30;99.90;;;;;;4973728;28;20058;-94
2023/12/03 06:22:29;;;;;;;76.78;27.95;;;2.30;99.90;;;;;;4987143;28;19961;-94
2023/12/03 06:24:54;;;;;;;71.57;27.35;;;2.30;99.90;;;;;;4965302;28;21382;-94
2023/12/03 06:27:20;;;;;;;71.30;27.58;;;2.30;99.90;;;;;;4979872;28;20341;-94
2023/12/03 06:29:46;;;;;;;75.68;29.10;;;2.40;99.90;;;;;;4969254;28;20039;-94
2023/12/03 06:32:12;;;;;;;62.97;26.60;;;2.40;99.90;;;;;;4968153;28;20033;-94
2023/12/03 06:34:37;;;;;;;78.40;29.60;;;2.50;99.90;;;;;;4964918;28;20026;-95
2023/12/03 06:37:04;;;;;;;67.47;27.75;;;2.50;99.90;;;;;;4967854;28;20038;-94
2023/12/03 06:39:34;;;;;;;68.28;27.05;;;2.50;99.90;;;;;;4966830;28;20081;-94
2023/12/03 06:42:02;;;;;;;74.07;28.83;;;2.60;99.90;;;;;;4970023;28;20119;-94
2023/12/03 06:44:28;;;;;;;68.18;27.40;;;2.40;99.90;;;;;;4979696;28;20039;-93
2023/12/03 06:46:57;;;;;;;73.95;27.90;;;2.50;99.90;;;;;;4988294;28;20046;-94
2023/12/03 06:49:23;;;;;;;67.95;27.65;;;2.50;99.90;;;;;;4961787;28;20046;-94
2023/12/03 06:51:48;;;;;;;87.05;29.77;;;2.60;99.90;;;;;;4978839;28;20035;-93
2023/12/03 06:54:14;;;;;;;83.30;27.90;;;2.70;99.90;;;;;;4965488;28;20068;-93
2023/12/03 06:56:40;;;;;;;68.85;26.67;;;2.60;99.90;;;;;;4965578;28;20499;-93
2023/12/03 06:59:05;;;;;;;73.35;29.00;;;2.50;99.90;;;;;;4964302;28;20022;-94
2023/12/03 07:01:32;;;;;;;72.22;28.25;;;2.50;99.90;;;;;;4967772;28;20039;-93
2023/12/03 07:03:58;;;;;;;70.45;28.45;;;2.50;99.90;;;;;;4965810;28;20050;-93
2023/12/03 07:06:26;;;;;;;77.20;30.05;;;2.50;99.90;;;;;;4969930;28;20079;-94
2023/12/03 07:08:53;;;;;;;68.85;28.85;;;2.50;99.90;;;;;;4989008;28;20046;-93
2023/12/03 07:11:21;;;;;;;73.78;28.52;;;2.50;99.90;;;;;;4968642;28;20325;-94
2023/12/03 07:13:51;;;;;;;;;;;2.50;99.90;;;;;;4986514;28;20035;-92
2023/12/03 07:16:19;;;;;;;70.65;26.95;;;2.60;99.90;;;;;;4982394;28;19917;-92
2023/12/03 07:18:47;;;;;;;82.43;26.73;;;2.70;99.90;;;;;;4960697;28;20130;-93
2023/12/03 07:21:12;;;;;;;71.22;27.40;;;2.60;99.90;;;;;;4964658;28;20039;-93
2023/12/03 07:23:38;;;;;;;72.53;27.83;;;2.70;99.90;;;;;;4977495;28;20207;-92
2023/12/03 07:26:10;;;;;;;72.35;26.52;;;2.70;99.90;;;;;;4964404;28;20074;-92
2023/12/03 07:28:39;;;;;;;72.68;26.98;;;2.70;99.90;;;;;;4970346;28;20030;-91
2023/12/03 07:31:05;;;;;;;68.03;27.25;;;2.50;99.90;;;;;;4971257;28;20022;-92
2023/12/03 07:33:34;;;;;;;78.75;28.13;;;2.50;99.90;;;;;;4967113;28;20038;-93
2023/12/03 07:36:01;;;;;;;70.03;27.35;;;2.50;99.90;;;;;;4967188;28;20049;-92
2023/12/03 07:38:28;;;;;;;70.32;28.23;;;2.70;99.90;;;;;;4968442;28;20101;-93
2023/12/03 07:40:54;;;;;;;77.50;27.83;;;2.50;99.90;;;;;;4967766;28;20031;-94
2023/12/03 07:43:19;;;;;;;66.40;27.13;;;2.50;99.90;;;;;;4979677;28;20029;-93
2023/12/03 07:45:45;;;;;;;63.55;25.20;;;2.60;99.90;;;;;;4969125;28;20121;-93
2023/12/03 07:48:13;;;;;;;73.97;29.05;;;2.60;99.90;;;;;;4972896;28;20043;-94
2023/12/03 07:50:38;;;;;;;;;;;2.60;99.90;;;;;;4971732;28;20067;-92
2023/12/03 07:53:06;;;;;;;67.45;26.70;;;2.70;99.90;;;;;;4970138;28;19922;-93
2023/12/03 07:55:33;;;;;;;70.43;25.90;;;2.70;99.90;;;;;;4987476;28;20508;-92
2023/12/03 07:58:00;;;;;;;73.15;29.40;;;2.70;99.90;;;;;;4975258;28;20042;-93
2023/12/03 08:00:31;;;;;;;68.35;25.50;;;2.60;99.90;;;;;;4987777;28;20031;-92
2023/12/03 08:02:56;;;;;;;65.70;25.05;;;2.60;99.90;;;;;;4952903;28;20027;-93
2023/12/03 08:05:22;;;;;;;67.65;26.80;;;2.80;99.90;;;;;;4968169;28;20074;-93
2023/12/03 08:07:52;;;;;;;63.20;25.38;;;3.00;99.90;;;;;;4970274;28;20119;-91
2023/12/03 08:10:19;;;;;;;63.30;25.17;;;2.90;99.90;;;;;;4970508;28;20027;-93
2023/12/03 08:12:45;;;;;;;70.28;26.45;;;2.80;99.90;;;;;;4970322;28;20054;-91
2023/12/03 08:15:10;;;;;;;62.17;26.27;;;2.80;99.90;;;;;;4954805;28;20039;-93
2023/12/03 08:17:37;;;;;;;70.60;25.90;;;2.90;99.90;;;;;;4971571;28;20029;-92
2023/12/03 08:20:05;;;;;;;68.47;26.52;;;3.00;99.90;;;;;;4970148;28;20787;-91
2023/12/03 08:22:31;;;;;;;64.88;25.42;;;3.00;99.90;;;;;;4968108;28;20041;-93
2023/12/03 08:24:57;;;;;;;67.97;25.80;;;3.10;99.90;;;;;;4974363;28;20042;-93
2023/12/03 08:27:23;;;;;;;69.63;24.77;;;3.10;99.90;;;;;;4979962;28;20035;-93
2023/12/03 08:29:49;;;;;;;55.50;22.08;;;3.10;99.90;;;;;;4980328;28;20037;-92
2023/12/03 08:32:15;;;;;;;70.35;25.23;;;3.10;99.90;;;;;;4978591;28;20030;-94
2023/12/03 08:34:40;;;;;;;64.72;26.00;;;3.10;99.90;;;;;;4979906;28;20046;-93
2023/12/03 08:37:06;;;;;;;58.47;23.58;;;3.30;99.90;;;;;;4977472;28;20030;-94
2023/12/03 08:39:32;;;;;;;60.58;24.23;;;3.50;99.90;;;;;;4980241;28;20073;-91
2023/12/03 08:41:57;;;;;;;63.33;24.77;;;3.30;99.90;;;;;;4981820;28;20091;-94
2023/12/03 08:44:25;;;;;;;67.72;25.27;;;3.30;99.90;;;;;;4977913;28;20318;-93
2023/12/03 08:46:51;;;;;;;65.28;24.77;;;3.40;99.90;;;;;;4971204;28;20035;-94
2023/12/03 08:49:17;;;;;;;60.45;24.20;;;3.30;99.90;;;;;;4969657;28;20242;-94
2023/12/03 08:51:42;;;;;;;62.20;24.50;;;3.20;99.90;;;;;;4966752;28;20065;-93
2023/12/03 08:54:08;;;;;;;65.05;25.42;;;3.20;99.90;;;;;;4964253;28;20380;-95
2023/12/03 08:56:34;;;;;;;66.18;24.58;;;3.20;99.90;;;;;;4981640;28;20338;-93
2023/12/03 08:59:00;;;;;;;58.33;24.27;;;3.10;99.90;;;;;;4960892;28;20046;-94
2023/12/03 09:01:25;;;;;;;58.78;24.13;;;3.10;99.90;;;;;;4962711;28;20035;-92
2023/12/03 09:03:51;;;;;;;62.42;24.15;;;3.10;99.90;;;;;;4963200;28;20386;-94
2023/12/03 09:06:17;;;;;;;53.97;22.85;;;3.30;99.90;;;;;;4962309;28;20538;-93
2023/12/03 09:08:43;;;;;;;59.25;23.33;;;3.20;99.90;;;;;;4948409;28;20061;-93
2023/12/03 09:11:08;;;;;;;56.40;21.90;;;3.00;99.90;;;;;;4964829;28;20038;-92
2023/12/03 09:13:34;;;;;;;58.08;22.63;;;3.10;99.90;;;;;;4972606;28;20023;-94
2023/12/03 09:16:00;;;;;;;58.97;22.20;;;2.90;99.90;;;;;;4966886;28;20153;-93
2023/12/03 09:18:25;;;;;;;59.75;23.45;;;3.00;99.90;;;;;;4972740;28;20110;-92
2023/12/03 09:20:51;;;;;;;60.83;23.60;;;3.00;99.90;;;;;;4975234;28;20050;-93
2023/12/03 09:23:17;;;;;;;65.47;24.95;;;2.90;99.90;;;;;;4975498;28;20039;-90
2023/12/03 09:25:43;;;;;;;66.55;23.80;;;3.00;99.90;;;;;;4973040;28;20105;-92
2023/12/03 09:28:10;;;;;;;64.78;23.70;;;3.00;99.90;;;;;;4970956;28;20722;-93
2023/12/03 09:30:36;;;;;;;60.38;22.67;;;2.80;99.90;;;;;;4968342;28;20109;-95
2023/12/03 09:33:01;;;;;;;68.47;24.40;;;2.70;99.90;;;;;;4963736;28;20038;-93
2023/12/03 09:35:30;;;;;;;66.07;23.50;;;2.80;99.90;;;;;;4967975;28;20039;-93
2023/12/03 09:37:56;;;;;;;71.95;25.45;;;2.70;99.90;;;;;;4965072;28;20027;-93
2023/12/03 09:40:23;;;;;;;56.70;21.80;;;2.90;99.90;;;;;;4967025;28;20089;-92
2023/12/03 09:42:48;;;;;;;75.10;24.88;;;2.80;99.90;;;;;;4964753;28;20146;-94
2023/12/03 09:45:16;;;;;;;72.72;24.40;;;2.90;99.90;;;;;;4969780;28;20058;-94
2023/12/03 09:47:48;;;;;;;68.35;24.80;;;3.00;99.90;;;;;;4974598;28;20121;-93
2023/12/03 09:50:14;;;;;;;68.55;25.67;;;2.90;99.90;;;;;;4978359;28;20042;-94
2023/12/03 09:52:44;;;;;;;70.20;25.73;;;2.90;99.90;;;;;;4977955;28;20322;-94
2023/12/03 09:55:09;;;;;;;70.88;25.33;;;2.80;99.90;;;;;;4978547;28;20030;-92
2023/12/03 09:57:37;;;;;;;68.22;23.73;;;2.80;99.90;;;;;;4978908;28;20026;-92
2023/12/03 10:00:08;;;;;;;60.25;22.85;;;2.90;99.90;;;;;;4977364;28;20034;-92
2023/12/03 10:02:37;;;;;;;71.82;25.15;;;2.90;99.90;;;;;;4978416;28;20074;-94
2023/12/03 10:05:03;;;;;;;75.72;25.63;;;2.90;99.90;;;;;;4974540;28;20066;-94
2023/12/03 10:07:29;;;;;;;71.53;23.67;;;2.90;99.90;;;;;;4987762;28;20030;-95
2023/12/03 10:10:04;;;;;;;71.35;24.00;;;3.00;99.90;;;;;;4974320;28;20049;-94
2023/12/03 10:12:41;;;;;;;65.95;23.58;;;3.10;99.90;;;;;;4970865;28;20530;-94
2023/12/03 10:15:08;;;;;;;;;;;3.10;99.90;;;;;;4977379;28;20037;-96
2023/12/03 10:17:37;;;;;;;63.75;23.55;;;3.00;99.90;;;;;;4979249;28;19949;-94
2023/12/03 10:20:22;;;;;;;70.68;24.33;;;2.90;99.90;;;;;;4977413;28;20037;-94
2023/12/03 10:22:56;;;;;;;67.00;23.60;;;3.00;99.90;;;;;;4972384;28;20031;-94
2023/12/03 10:25:35;;;;;;;72.28;24.05;;;3.20;99.90;;;;;;4958374;28;20030;-95
2023/12/03 10:28:07;;;;;;;72.47;25.35;;;3.10;99.90;;;;;;4972304;28;20043;-95
2023/12/03 10:30:35;;;;;;;65.32;23.88;;;3.00;99.90;;;;;;4983494;28;20050;-94
2023/12/03 10:33:11;;;;;;;64.95;22.55;;;2.90;99.90;;;;;;4974140;28;20050;-96
2023/12/03 10:35:37;;;;;;;66.57;23.05;;;3.00;99.90;;;;;;4982051;28;20055;-92
2023/12/03 10:38:09;;;;;;;63.67;23.77;;;3.00;99.90;;;;;;4969133;28;20117;-96
2023/12/03 10:40:35;;;;;;;73.07;25.50;;;3.00;99.90;;;;;;4982068;28;20121;-94
2023/12/03 10:43:03;;;;;;;65.20;24.95;;;3.10;99.90;;;;;;4964420;28;20119;-92
2023/12/03 10:45:29;;;;;;;67.20;24.95;;;3.10;99.90;;;;;;4969491;28;20526;-93
2023/12/03 10:47:59;;;;;;;64.95;23.75;;;3.00;99.90;;;;;;4972957;28;20109;-94
2023/12/03 10:50:28;;;;;;;67.05;23.40;;;3.10;99.90;;;;;;4978190;28;20023;-94
2023/12/03 10:52:58;;;;;;;53.85;22.63;;;3.00;99.90;;;;;;4983083;28;20544;-95
2023/12/03 10:55:23;;;;;;;67.05;23.55;;;3.00;99.90;;;;;;4998737;28;20019;-95
2023/12/03 10:58:01;;;;;;;58.63;22.55;;;3.00;99.90;;;;;;5004780;28;20034;-94
2023/12/03 11:00:40;;;;;;;53.83;22.17;;;3.00;99.90;;;;;;4977839;28;20054;-94
2023/12/03 11:03:53;;;;;;;63.45;22.60;;;2.90;99.90;;;;;;4981910;28;20038;-93
2023/12/03 11:09:23;;;;;;;58.33;22.60;;;2.80;99.90;;;;;;4981942;28;20054;-72
2023/12/03 11:11:49;;;;;;;58.77;21.53;;;2.80;99.90;;;;;;4980635;28;20034;-72
2023/12/03 11:14:15;;;;;;;55.03;20.60;;;2.70;99.90;;;;;;4979239;28;20349;-73
2023/12/03 11:16:50;;;;;;;60.60;21.42;;;2.80;99.90;;;;;;4980705;28;20041;-72
2023/12/03 11:19:19;;;;;;;51.72;20.77;;;2.80;99.90;;;;;;4984670;28;20036;-73
2023/12/03 11:21:44;;;;;;;59.03;21.70;;;2.90;99.90;;;;;;4980844;28;20027;-72
2023/12/03 11:24:35;;;;;;;54.17;20.48;;;3.00;99.90;;;;;;4984839;28;20068;-75
2023/12/03 11:27:01;;;;;;;53.58;19.70;;;3.00;99.90;;;;;;4987457;28;20096;-79
2023/12/03 11:29:48;;;;;;;52.78;19.33;;;3.00;99.90;;;;;;4983317;28;20030;-72
2023/12/03 11:32:15;;;;;;;54.53;20.00;;;3.10;99.90;;;;;;4977091;28;20025;-74
2023/12/03 11:34:40;;;;;;;44.25;18.27;;;3.00;99.90;;;;;;4978437;28;20041;-70
2023/12/03 11:37:09;;;;;;;51.40;20.38;;;3.10;99.90;;;;;;4974759;28;20089;-73
2023/12/03 11:40:24;;;;;;;50.15;19.35;;;3.10;99.90;;;;;;4977199;28;20022;-78
2023/12/03 11:42:49;;;;;;;47.85;18.10;;;3.20;99.90;;;;;;4975594;28;20038;-70
2023/12/03 11:45:23;;;;;;;50.33;17.95;;;3.30;99.90;;;;;;4976915;28;20566;-70
2023/12/03 11:48:07;;;;;;;48.63;17.50;;;3.30;99.90;;;;;;4975861;28;20030;-70
2023/12/03 11:50:41;;;;;;;48.42;17.45;;;3.40;99.90;;;;;;4975703;28;20076;-70
2023/12/03 11:53:08;;;;;;;43.47;15.52;;;3.40;99.90;;;;;;4975218;28;21037;-67
2023/12/03 11:55:35;;;;;;;45.30;15.67;;;3.30;99.90;;;;;;4974326;28;20109;-71
2023/12/03 11:58:02;;;;;;;37.15;15.30;;;3.30;99.90;;;;;;4974566;28;20274;-72
2023/12/03 12:00:31;;;;;;;36.30;16.63;;;3.30;99.90;;;;;;4975862;28;20646;-71
2023/12/03 12:02:58;;;;;;;38.65;15.32;;;3.40;99.90;;;;;;4973191;28;20038;-72
2023/12/03 12:05:24;;;;;;;43.97;16.25;;;3.40;99.90;;;;;;4977070;28;20030;-71
2023/12/03 12:08:03;;;;;;;45.38;15.68;;;3.30;99.90;;;;;;4973289;28;20061;-71
2023/12/03 12:10:32;;;;;;;38.30;15.02;;;3.30;99.90;;;;;;4983121;28;20277;-71
2023/12/03 12:13:00;;;;;;;40.35;15.50;;;3.30;99.90;;;;;;4974216;28;20543;-71
2023/12/03 12:15:27;;;;;;;36.30;14.30;;;3.20;99.90;;;;;;4975193;28;20038;-71
2023/12/03 12:17:53;;;;;;;32.97;13.57;;;3.30;99.90;;;;;;4974818;28;20192;-71
2023/12/03 12:20:27;;;;;;;32.33;12.82;;;3.40;99.90;;;;;;4975663;28;20072;-70
2023/12/03 12:22:56;;;;;;;33.15;11.82;;;3.30;99.90;;;;;;4972544;28;20042;-70
2023/12/03 12:25:24;;;;;;;25.00;10.68;;;3.30;99.90;;;;;;4975203;28;20506;-71
2023/12/03 12:27:51;;;;;;;28.33;10.57;;;3.40;99.90;;;;;;4972306;28;20355;-70
2023/12/03 12:30:17;;;;;;;27.90;10.87;;;3.40;99.90;;;;;;4974977;28;20065;-71
2023/12/03 12:32:43;;;;;;;29.63;11.15;;;3.50;99.90;;;;;;4982161;28;20046;-70
2023/12/03 12:35:12;;;;;;;30.92;11.63;;;3.50;99.90;;;;;;4978383;28;20041;-71
2023/12/03 12:37:38;;;;;;;27.90;10.68;;;3.40;99.90;;;;;;4977866;28;20034;-68
2023/12/03 12:40:10;;;;;;;30.73;11.85;;;3.40;99.90;;;;;;4977284;28;20519;-69
2023/12/03 12:42:40;;;;;;;31.38;11.38;;;3.50;99.90;;;;;;4975375;28;20045;-69
2023/12/03 12:45:07;;;;;;;26.90;10.75;;;3.30;99.90;;;;;;4977128;28;20050;-69